sensor_id;sensor_type;location;lat;lon;timestamp;temperature;humidity
74101;DHT22;62462;52.530;21.682;2023-09-07T00:00:13;19.50;63.00
74101;DHT22;62462;52.530;21.682;2023-09-07T00:02:39;19.50;62.90
74101;DHT22;62462;52.530;21.682;2023-09-07T00:05:06;19.50;62.80
74101;DHT22;62462;52.530;21.682;2023-09-07T00:07:33;19.40;62.80
74101;DHT22;62462;52.530;21.682;2023-09-07T00:09:58;19.40;63.30
74101;DHT22;62462;52.530;21.682;2023-09-07T00:12:25;19.40;63.00
74101;DHT22;62462;52.530;21.682;2023-09-07T00:14:52;19.40;63.00
74101;DHT22;62462;52.530;21.682;2023-09-07T00:17:17;19.40;62.70
74101;DHT22;62462;52.530;21.682;2023-09-07T00:19:43;19.40;62.80
74101;DHT22;62462;52.530;21.682;2023-09-07T00:22:11;19.40;62.40
74101;DHT22;62462;52.530;21.682;2023-09-07T00:24:37;19.30;62.20
74101;DHT22;62462;52.530;21.682;2023-09-07T00:27:03;19.30;62.30
74101;DHT22;62462;52.530;21.682;2023-09-07T00:29:31;19.30;62.30
74101;DHT22;62462;52.530;21.682;2023-09-07T00:31:57;19.30;62.50
74101;DHT22;62462;52.530;21.682;2023-09-07T00:34:22;19.30;62.90
74101;DHT22;62462;52.530;21.682;2023-09-07T00:36:48;19.20;63.20
74101;DHT22;62462;52.530;21.682;2023-09-07T00:39:14;19.10;62.80
74101;DHT22;62462;52.530;21.682;2023-09-07T00:41:39;19.10;62.70
74101;DHT22;62462;52.530;21.682;2023-09-07T00:44:05;19.10;62.50
74101;DHT22;62462;52.530;21.682;2023-09-07T00:46:31;19.00;62.50
74101;DHT22;62462;52.530;21.682;2023-09-07T00:48:57;19.00;62.50
74101;DHT22;62462;52.530;21.682;2023-09-07T00:51:23;19.00;62.50
74101;DHT22;62462;52.530;21.682;2023-09-07T00:53:49;18.90;63.10
74101;DHT22;62462;52.530;21.682;2023-09-07T00:56:16;18.90;63.10
74101;DHT22;62462;52.530;21.682;2023-09-07T00:58:42;18.90;63.10
74101;DHT22;62462;52.530;21.682;2023-09-07T01:01:08;18.90;62.80
74101;DHT22;62462;52.530;21.682;2023-09-07T01:03:34;18.80;62.90
74101;DHT22;62462;52.530;21.682;2023-09-07T01:06:13;18.80;63.10
74101;DHT22;62462;52.530;21.682;2023-09-07T01:08:44;18.80;63.20
74101;DHT22;62462;52.530;21.682;2023-09-07T01:11:17;18.70;63.00
74101;DHT22;62462;52.530;21.682;2023-09-07T01:13:43;18.70;62.60
74101;DHT22;62462;52.530;21.682;2023-09-07T01:16:10;18.70;62.60
74101;DHT22;62462;52.530;21.682;2023-09-07T01:18:37;18.70;63.20
74101;DHT22;62462;52.530;21.682;2023-09-07T01:21:06;18.60;63.40
74101;DHT22;62462;52.530;21.682;2023-09-07T01:23:35;18.60;62.70
74101;DHT22;62462;52.530;21.682;2023-09-07T01:26:02;18.60;62.70
74101;DHT22;62462;52.530;21.682;2023-09-07T01:28:28;18.60;62.90
74101;DHT22;62462;52.530;21.682;2023-09-07T01:30:53;18.60;63.10
74101;DHT22;62462;52.530;21.682;2023-09-07T01:33:19;18.50;62.40
74101;DHT22;62462;52.530;21.682;2023-09-07T01:35:45;18.50;62.30
74101;DHT22;62462;52.530;21.682;2023-09-07T01:38:11;18.50;62.30
74101;DHT22;62462;52.530;21.682;2023-09-07T01:40:37;18.50;62.30
74101;DHT22;62462;52.530;21.682;2023-09-07T01:43:03;18.40;62.20
74101;DHT22;62462;52.530;21.682;2023-09-07T01:45:28;18.40;62.20
74101;DHT22;62462;52.530;21.682;2023-09-07T01:47:54;18.30;62.70
74101;DHT22;62462;52.530;21.682;2023-09-07T01:50:20;18.20;63.10
74101;DHT22;62462;52.530;21.682;2023-09-07T01:52:47;18.20;62.60
74101;DHT22;62462;52.530;21.682;2023-09-07T01:55:16;18.20;62.60
74101;DHT22;62462;52.530;21.682;2023-09-07T01:57:41;18.20;62.80
74101;DHT22;62462;52.530;21.682;2023-09-07T02:00:07;18.20;62.40
74101;DHT22;62462;52.530;21.682;2023-09-07T02:02:33;18.20;62.80
74101;DHT22;62462;52.530;21.682;2023-09-07T02:04:59;18.10;63.10
74101;DHT22;62462;52.530;21.682;2023-09-07T02:07:24;18.10;62.50
74101;DHT22;62462;52.530;21.682;2023-09-07T02:09:50;18.00;62.50
74101;DHT22;62462;52.530;21.682;2023-09-07T02:12:16;18.00;62.60
74101;DHT22;62462;52.530;21.682;2023-09-07T02:14:42;17.90;62.80
74101;DHT22;62462;52.530;21.682;2023-09-07T02:17:08;17.90;62.90
74101;DHT22;62462;52.530;21.682;2023-09-07T02:19:34;17.90;62.80
74101;DHT22;62462;52.530;21.682;2023-09-07T02:22:01;17.80;62.40
74101;DHT22;62462;52.530;21.682;2023-09-07T02:24:26;17.80;62.90
74101;DHT22;62462;52.530;21.682;2023-09-07T02:26:52;17.80;63.00
74101;DHT22;62462;52.530;21.682;2023-09-07T02:29:18;17.80;62.90
74101;DHT22;62462;52.530;21.682;2023-09-07T02:31:43;17.70;63.10
74101;DHT22;62462;52.530;21.682;2023-09-07T02:34:09;17.70;63.00
74101;DHT22;62462;52.530;21.682;2023-09-07T02:36:35;17.70;63.30
74101;DHT22;62462;52.530;21.682;2023-09-07T02:39:01;17.60;63.20
74101;DHT22;62462;52.530;21.682;2023-09-07T02:41:27;17.60;63.40
74101;DHT22;62462;52.530;21.682;2023-09-07T02:43:53;17.60;63.10
74101;DHT22;62462;52.530;21.682;2023-09-07T02:46:18;17.60;64.30
74101;DHT22;62462;52.530;21.682;2023-09-07T02:48:44;17.50;63.50
74101;DHT22;62462;52.530;21.682;2023-09-07T02:51:10;17.50;63.50
74101;DHT22;62462;52.530;21.682;2023-09-07T02:53:35;17.50;63.60
74101;DHT22;62462;52.530;21.682;2023-09-07T02:56:01;17.50;63.20
74101;DHT22;62462;52.530;21.682;2023-09-07T02:58:30;17.40;63.60
74101;DHT22;62462;52.530;21.682;2023-09-07T03:00:56;17.50;63.40
74101;DHT22;62462;52.530;21.682;2023-09-07T03:03:21;17.50;63.20
74101;DHT22;62462;52.530;21.682;2023-09-07T03:05:47;17.40;63.20
74101;DHT22;62462;52.530;21.682;2023-09-07T03:08:13;17.30;63.70
74101;DHT22;62462;52.530;21.682;2023-09-07T03:10:39;17.20;63.40
74101;DHT22;62462;52.530;21.682;2023-09-07T03:13:08;17.20;63.60
74101;DHT22;62462;52.530;21.682;2023-09-07T03:15:34;17.20;64.10
74101;DHT22;62462;52.530;21.682;2023-09-07T03:18:00;17.10;63.90
74101;DHT22;62462;52.530;21.682;2023-09-07T03:20:26;17.20;63.60
74101;DHT22;62462;52.530;21.682;2023-09-07T03:22:52;17.20;63.60
74101;DHT22;62462;52.530;21.682;2023-09-07T03:25:17;17.20;63.60
74101;DHT22;62462;52.530;21.682;2023-09-07T03:27:43;17.20;63.60
74101;DHT22;62462;52.530;21.682;2023-09-07T03:30:09;17.20;64.00
74101;DHT22;62462;52.530;21.682;2023-09-07T03:32:35;17.20;64.00
74101;DHT22;62462;52.530;21.682;2023-09-07T03:35:03;17.20;63.70
74101;DHT22;62462;52.530;21.682;2023-09-07T03:37:35;17.20;64.00
74101;DHT22;62462;52.530;21.682;2023-09-07T03:40:01;17.20;64.20
74101;DHT22;62462;52.530;21.682;2023-09-07T03:42:26;17.20;64.30
74101;DHT22;62462;52.530;21.682;2023-09-07T03:44:52;17.20;64.30
74101;DHT22;62462;52.530;21.682;2023-09-07T03:47:18;17.20;64.30
74101;DHT22;62462;52.530;21.682;2023-09-07T03:49:43;17.20;64.60
74101;DHT22;62462;52.530;21.682;2023-09-07T03:52:10;17.20;65.20
74101;DHT22;62462;52.530;21.682;2023-09-07T03:54:37;17.20;65.80
74101;DHT22;62462;52.530;21.682;2023-09-07T03:57:03;17.20;66.30
74101;DHT22;62462;52.530;21.682;2023-09-07T03:59:29;17.30;66.60
74101;DHT22;62462;52.530;21.682;2023-09-07T04:01:55;17.30;67.40
74101;DHT22;62462;52.530;21.682;2023-09-07T04:04:20;17.30;67.40
74101;DHT22;62462;52.530;21.682;2023-09-07T04:06:47;17.40;67.60
74101;DHT22;62462;52.530;21.682;2023-09-07T04:09:13;17.40;67.30
74101;DHT22;62462;52.530;21.682;2023-09-07T04:11:39;17.50;67.00
74101;DHT22;62462;52.530;21.682;2023-09-07T04:14:05;17.50;66.60
74101;DHT22;62462;52.530;21.682;2023-09-07T04:16:31;17.50;66.60
74101;DHT22;62462;52.530;21.682;2023-09-07T04:18:57;17.50;67.20
74101;DHT22;62462;52.530;21.682;2023-09-07T04:21:22;17.50;67.20
74101;DHT22;62462;52.530;21.682;2023-09-07T04:23:48;17.50;67.40
74101;DHT22;62462;52.530;21.682;2023-09-07T04:26:14;17.50;67.80
74101;DHT22;62462;52.530;21.682;2023-09-07T04:28:39;17.50;68.10
74101;DHT22;62462;52.530;21.682;2023-09-07T04:31:06;17.60;68.70
74101;DHT22;62462;52.530;21.682;2023-09-07T04:33:35;17.60;68.20
74101;DHT22;62462;52.530;21.682;2023-09-07T04:36:13;17.70;68.40
74101;DHT22;62462;52.530;21.682;2023-09-07T04:38:40;17.70;68.50
74101;DHT22;62462;52.530;21.682;2023-09-07T04:41:10;17.70;68.60
74101;DHT22;62462;52.530;21.682;2023-09-07T04:43:41;17.80;68.40
74101;DHT22;62462;52.530;21.682;2023-09-07T04:46:09;17.90;68.60
74101;DHT22;62462;52.530;21.682;2023-09-07T04:48:36;17.90;68.80
74101;DHT22;62462;52.530;21.682;2023-09-07T04:51:03;17.90;68.90
74101;DHT22;62462;52.530;21.682;2023-09-07T04:53:32;17.90;69.10
74101;DHT22;62462;52.530;21.682;2023-09-07T04:55:58;17.90;69.40
74101;DHT22;62462;52.530;21.682;2023-09-07T04:58:24;17.90;69.70
74101;DHT22;62462;52.530;21.682;2023-09-07T05:00:50;18.00;69.70
74101;DHT22;62462;52.530;21.682;2023-09-07T05:03:16;18.10;69.50
74101;DHT22;62462;52.530;21.682;2023-09-07T05:05:42;18.20;69.30
74101;DHT22;62462;52.530;21.682;2023-09-07T05:08:09;18.30;69.20
74101;DHT22;62462;52.530;21.682;2023-09-07T05:10:35;18.30;69.30
74101;DHT22;62462;52.530;21.682;2023-09-07T05:13:00;18.30;69.40
74101;DHT22;62462;52.530;21.682;2023-09-07T05:15:26;18.40;69.40
74101;DHT22;62462;52.530;21.682;2023-09-07T05:17:53;18.50;69.60
74101;DHT22;62462;52.530;21.682;2023-09-07T05:20:19;18.50;70.00
74101;DHT22;62462;52.530;21.682;2023-09-07T05:22:44;18.50;69.60
74101;DHT22;62462;52.530;21.682;2023-09-07T05:25:11;18.50;69.80
74101;DHT22;62462;52.530;21.682;2023-09-07T05:27:37;18.60;69.80
74101;DHT22;62462;52.530;21.682;2023-09-07T05:30:04;18.70;69.70
74101;DHT22;62462;52.530;21.682;2023-09-07T05:32:30;18.80;69.60
74101;DHT22;62462;52.530;21.682;2023-09-07T05:34:55;18.90;69.60
74101;DHT22;62462;52.530;21.682;2023-09-07T05:37:21;19.00;69.40
74101;DHT22;62462;52.530;21.682;2023-09-07T05:39:47;19.10;69.40
74101;DHT22;62462;52.530;21.682;2023-09-07T05:42:14;19.20;69.20
74101;DHT22;62462;52.530;21.682;2023-09-07T05:44:40;19.30;69.10
74101;DHT22;62462;52.530;21.682;2023-09-07T05:47:06;19.30;69.10
74101;DHT22;62462;52.530;21.682;2023-09-07T05:49:31;19.40;69.10
74101;DHT22;62462;52.530;21.682;2023-09-07T05:51:57;19.50;68.80
74101;DHT22;62462;52.530;21.682;2023-09-07T05:54:23;19.60;69.10
74101;DHT22;62462;52.530;21.682;2023-09-07T05:56:48;19.60;68.80
74101;DHT22;62462;52.530;21.682;2023-09-07T05:59:14;19.80;68.60
74101;DHT22;62462;52.530;21.682;2023-09-07T06:01:41;19.90;68.50
74101;DHT22;62462;52.530;21.682;2023-09-07T06:04:07;19.90;68.50
74101;DHT22;62462;52.530;21.682;2023-09-07T06:06:33;20.00;68.40
74101;DHT22;62462;52.530;21.682;2023-09-07T06:08:59;20.00;68.50
74101;DHT22;62462;52.530;21.682;2023-09-07T06:11:25;20.10;68.70
74101;DHT22;62462;52.530;21.682;2023-09-07T06:13:51;20.10;68.10
74101;DHT22;62462;52.530;21.682;2023-09-07T06:16:17;20.20;68.40
74101;DHT22;62462;52.530;21.682;2023-09-07T06:18:43;20.30;68.40
74101;DHT22;62462;52.530;21.682;2023-09-07T06:21:09;20.40;68.00
74101;DHT22;62462;52.530;21.682;2023-09-07T06:23:35;20.50;67.90
74101;DHT22;62462;52.530;21.682;2023-09-07T06:26:00;20.70;67.40
74101;DHT22;62462;52.530;21.682;2023-09-07T06:28:26;20.80;67.20
74101;DHT22;62462;52.530;21.682;2023-09-07T06:30:52;20.90;67.00
74101;DHT22;62462;52.530;21.682;2023-09-07T06:33:18;20.90;66.60
74101;DHT22;62462;52.530;21.682;2023-09-07T06:35:44;21.00;66.70
74101;DHT22;62462;52.530;21.682;2023-09-07T06:38:10;21.10;66.50
74101;DHT22;62462;52.530;21.682;2023-09-07T06:40:35;21.20;66.20
74101;DHT22;62462;52.530;21.682;2023-09-07T06:43:01;21.30;66.00
74101;DHT22;62462;52.530;21.682;2023-09-07T06:45:36;21.40;65.80
74101;DHT22;62462;52.530;21.682;2023-09-07T06:48:03;21.60;66.10
74101;DHT22;62462;52.530;21.682;2023-09-07T06:50:29;21.70;65.70
74101;DHT22;62462;52.530;21.682;2023-09-07T06:52:54;21.80;65.50
74101;DHT22;62462;52.530;21.682;2023-09-07T06:55:20;21.80;65.10
74101;DHT22;62462;52.530;21.682;2023-09-07T06:57:46;21.90;65.10
74101;DHT22;62462;52.530;21.682;2023-09-07T07:00:12;22.00;65.10
74101;DHT22;62462;52.530;21.682;2023-09-07T07:02:38;22.10;65.00
74101;DHT22;62462;52.530;21.682;2023-09-07T07:05:04;22.30;64.70
74101;DHT22;62462;52.530;21.682;2023-09-07T07:07:30;22.40;64.30
74101;DHT22;62462;52.530;21.682;2023-09-07T07:09:56;22.50;64.10
74101;DHT22;62462;52.530;21.682;2023-09-07T07:12:22;22.60;63.80
74101;DHT22;62462;52.530;21.682;2023-09-07T07:14:47;22.70;64.00
74101;DHT22;62462;52.530;21.682;2023-09-07T07:17:13;22.80;63.20
74101;DHT22;62462;52.530;21.682;2023-09-07T07:19:39;22.80;63.40
74101;DHT22;62462;52.530;21.682;2023-09-07T07:22:05;23.00;63.50
74101;DHT22;62462;52.530;21.682;2023-09-07T07:24:31;23.10;62.40
74101;DHT22;62462;52.530;21.682;2023-09-07T07:26:56;23.10;62.00
74101;DHT22;62462;52.530;21.682;2023-09-07T07:29:22;23.10;62.30
74101;DHT22;62462;52.530;21.682;2023-09-07T07:31:48;23.20;62.60
74101;DHT22;62462;52.530;21.682;2023-09-07T07:34:13;23.30;62.60
74101;DHT22;62462;52.530;21.682;2023-09-07T07:36:39;23.50;62.60
74101;DHT22;62462;52.530;21.682;2023-09-07T07:39:05;23.70;62.20
74101;DHT22;62462;52.530;21.682;2023-09-07T07:41:32;23.80;61.20
74101;DHT22;62462;52.530;21.682;2023-09-07T07:43:58;24.00;61.20
74101;DHT22;62462;52.530;21.682;2023-09-07T07:46:24;24.10;60.80
74101;DHT22;62462;52.530;21.682;2023-09-07T07:48:50;24.10;59.60
74101;DHT22;62462;52.530;21.682;2023-09-07T07:51:15;24.10;59.20
74101;DHT22;62462;52.530;21.682;2023-09-07T07:53:41;24.20;59.50
74101;DHT22;62462;52.530;21.682;2023-09-07T07:56:15;24.20;58.90
74101;DHT22;62462;52.530;21.682;2023-09-07T07:58:40;24.20;58.90
74101;DHT22;62462;52.530;21.682;2023-09-07T08:01:16;24.30;58.80
74101;DHT22;62462;52.530;21.682;2023-09-07T08:03:43;24.40;59.10
74101;DHT22;62462;52.530;21.682;2023-09-07T08:06:09;24.50;60.30
74101;DHT22;62462;52.530;21.682;2023-09-07T08:08:36;24.70;59.60
74101;DHT22;62462;52.530;21.682;2023-09-07T08:11:02;24.80;59.00
74101;DHT22;62462;52.530;21.682;2023-09-07T08:13:35;24.90;58.90
74101;DHT22;62462;52.530;21.682;2023-09-07T08:16:04;25.00;59.20
74101;DHT22;62462;52.530;21.682;2023-09-07T08:18:32;25.20;58.90
74101;DHT22;62462;52.530;21.682;2023-09-07T08:20:58;25.30;58.90
74101;DHT22;62462;52.530;21.682;2023-09-07T08:23:24;25.40;58.50
74101;DHT22;62462;52.530;21.682;2023-09-07T08:25:53;25.50;58.40
74101;DHT22;62462;52.530;21.682;2023-09-07T08:28:19;25.60;58.10
74101;DHT22;62462;52.530;21.682;2023-09-07T08:30:49;25.60;58.00
74101;DHT22;62462;52.530;21.682;2023-09-07T08:33:17;25.70;56.90
74101;DHT22;62462;52.530;21.682;2023-09-07T08:35:42;25.70;57.00
74101;DHT22;62462;52.530;21.682;2023-09-07T08:38:12;25.80;57.40
74101;DHT22;62462;52.530;21.682;2023-09-07T08:40:38;25.90;57.50
74101;DHT22;62462;52.530;21.682;2023-09-07T08:43:08;26.00;56.80
74101;DHT22;62462;52.530;21.682;2023-09-07T08:45:41;26.10;56.50
74101;DHT22;62462;52.530;21.682;2023-09-07T08:48:11;26.20;56.70
74101;DHT22;62462;52.530;21.682;2023-09-07T08:50:40;26.40;56.90
74101;DHT22;62462;52.530;21.682;2023-09-07T08:53:08;26.50;56.80
74101;DHT22;62462;52.530;21.682;2023-09-07T08:55:34;26.70;56.70
74101;DHT22;62462;52.530;21.682;2023-09-07T08:57:59;26.70;55.00
74101;DHT22;62462;52.530;21.682;2023-09-07T09:00:25;26.60;53.60
74101;DHT22;62462;52.530;21.682;2023-09-07T09:02:51;26.60;54.50
74101;DHT22;62462;52.530;21.682;2023-09-07T09:05:19;26.70;55.20
74101;DHT22;62462;52.530;21.682;2023-09-07T09:07:45;26.80;55.30
74101;DHT22;62462;52.530;21.682;2023-09-07T09:10:11;26.90;53.60
74101;DHT22;62462;52.530;21.682;2023-09-07T09:12:45;26.90;53.00
74101;DHT22;62462;52.530;21.682;2023-09-07T09:15:11;27.00;53.00
74101;DHT22;62462;52.530;21.682;2023-09-07T09:17:37;26.90;53.10
74101;DHT22;62462;52.530;21.682;2023-09-07T09:20:03;27.00;52.50
74101;DHT22;62462;52.530;21.682;2023-09-07T09:22:34;27.10;51.30
74101;DHT22;62462;52.530;21.682;2023-09-07T09:25:03;27.10;52.00
74101;DHT22;62462;52.530;21.682;2023-09-07T09:27:30;27.10;50.90
74101;DHT22;62462;52.530;21.682;2023-09-07T09:29:56;27.20;52.00
74101;DHT22;62462;52.530;21.682;2023-09-07T09:32:24;27.30;52.00
74101;DHT22;62462;52.530;21.682;2023-09-07T09:34:50;27.40;50.90
74101;DHT22;62462;52.530;21.682;2023-09-07T09:37:16;27.60;51.80
74101;DHT22;62462;52.530;21.682;2023-09-07T09:39:42;27.60;50.00
74101;DHT22;62462;52.530;21.682;2023-09-07T09:42:09;27.70;50.40
74101;DHT22;62462;52.530;21.682;2023-09-07T09:44:34;27.80;49.50
74101;DHT22;62462;52.530;21.682;2023-09-07T09:47:02;27.80;50.40
74101;DHT22;62462;52.530;21.682;2023-09-07T09:49:29;27.90;48.70
74101;DHT22;62462;52.530;21.682;2023-09-07T09:51:56;28.00;49.50
74101;DHT22;62462;52.530;21.682;2023-09-07T09:54:24;28.00;47.60
74101;DHT22;62462;52.530;21.682;2023-09-07T09:56:51;28.10;48.40
74101;DHT22;62462;52.530;21.682;2023-09-07T09:59:17;28.20;48.20
74101;DHT22;62462;52.530;21.682;2023-09-07T10:01:46;28.40;48.70
74101;DHT22;62462;52.530;21.682;2023-09-07T10:04:13;28.40;46.30
74101;DHT22;62462;52.530;21.682;2023-09-07T10:06:59;28.50;47.00
74101;DHT22;62462;52.530;21.682;2023-09-07T10:09:30;28.50;44.70
74101;DHT22;62462;52.530;21.682;2023-09-07T10:11:58;28.50;45.50
74101;DHT22;62462;52.530;21.682;2023-09-07T10:14:25;28.30;45.80
74101;DHT22;62462;52.530;21.682;2023-09-07T10:16:54;28.00;46.10
74101;DHT22;62462;52.530;21.682;2023-09-07T10:19:25;27.70;45.60
74101;DHT22;62462;52.530;21.682;2023-09-07T10:21:56;27.50;48.50
74101;DHT22;62462;52.530;21.682;2023-09-07T10:27:00;28.00;48.80
74101;DHT22;62462;52.530;21.682;2023-09-07T10:29:27;28.30;46.40
74101;DHT22;62462;52.530;21.682;2023-09-07T10:31:53;28.50;46.90
74101;DHT22;62462;52.530;21.682;2023-09-07T10:34:19;28.80;46.70
74101;DHT22;62462;52.530;21.682;2023-09-07T10:36:46;29.00;47.10
74101;DHT22;62462;52.530;21.682;2023-09-07T10:39:12;29.20;46.80
74101;DHT22;62462;52.530;21.682;2023-09-07T10:41:45;29.40;46.70
74101;DHT22;62462;52.530;21.682;2023-09-07T10:44:11;29.60;47.40
74101;DHT22;62462;52.530;21.682;2023-09-07T10:46:38;29.70;46.50
74101;DHT22;62462;52.530;21.682;2023-09-07T10:49:08;29.90;45.50
74101;DHT22;62462;52.530;21.682;2023-09-07T10:51:45;30.00;42.60
74101;DHT22;62462;52.530;21.682;2023-09-07T10:54:21;29.90;43.60
74101;DHT22;62462;52.530;21.682;2023-09-07T10:56:48;29.70;43.30
74101;DHT22;62462;52.530;21.682;2023-09-07T10:59:14;29.40;44.20
74101;DHT22;62462;52.530;21.682;2023-09-07T11:01:41;29.20;44.60
74101;DHT22;62462;52.530;21.682;2023-09-07T11:04:07;28.80;43.20
74101;DHT22;62462;52.530;21.682;2023-09-07T11:06:34;28.40;44.10
74101;DHT22;62462;52.530;21.682;2023-09-07T11:09:01;28.30;45.60
74101;DHT22;62462;52.530;21.682;2023-09-07T11:11:31;28.60;47.30
74101;DHT22;62462;52.530;21.682;2023-09-07T11:13:58;28.70;45.60
74101;DHT22;62462;52.530;21.682;2023-09-07T11:16:25;28.70;46.30
74101;DHT22;62462;52.530;21.682;2023-09-07T11:18:54;28.60;46.60
74101;DHT22;62462;52.530;21.682;2023-09-07T11:21:20;28.60;46.80
74101;DHT22;62462;52.530;21.682;2023-09-07T11:23:46;28.50;47.50
74101;DHT22;62462;52.530;21.682;2023-09-07T11:26:13;28.50;47.60
74101;DHT22;62462;52.530;21.682;2023-09-07T11:28:39;28.30;47.80
74101;DHT22;62462;52.530;21.682;2023-09-07T11:31:06;28.10;48.10
74101;DHT22;62462;52.530;21.682;2023-09-07T11:33:33;27.90;48.70
74101;DHT22;62462;52.530;21.682;2023-09-07T11:35:59;27.70;48.90
74101;DHT22;62462;52.530;21.682;2023-09-07T11:38:29;27.70;49.10
74101;DHT22;62462;52.530;21.682;2023-09-07T11:41:00;27.50;49.20
74101;DHT22;62462;52.530;21.682;2023-09-07T11:43:25;27.40;49.40
74101;DHT22;62462;52.530;21.682;2023-09-07T11:45:51;27.30;49.60
74101;DHT22;62462;52.530;21.682;2023-09-07T11:48:17;27.20;49.60
74101;DHT22;62462;52.530;21.682;2023-09-07T11:50:43;27.30;50.40
74101;DHT22;62462;52.530;21.682;2023-09-07T11:53:09;27.60;49.00
74101;DHT22;62462;52.530;21.682;2023-09-07T11:55:35;27.90;49.10
74101;DHT22;62462;52.530;21.682;2023-09-07T11:58:02;27.90;45.30
74101;DHT22;62462;52.530;21.682;2023-09-07T12:00:28;27.80;45.80
74101;DHT22;62462;52.530;21.682;2023-09-07T12:02:55;27.70;46.40
74101;DHT22;62462;52.530;21.682;2023-09-07T12:05:20;27.60;45.40
74101;DHT22;62462;52.530;21.682;2023-09-07T12:07:46;27.80;45.20
74101;DHT22;62462;52.530;21.682;2023-09-07T12:10:12;28.10;44.30
74101;DHT22;62462;52.530;21.682;2023-09-07T12:12:40;28.60;44.70
74101;DHT22;62462;52.530;21.682;2023-09-07T12:15:06;28.90;43.40
74101;DHT22;62462;52.530;21.682;2023-09-07T12:17:33;28.90;43.50
74101;DHT22;62462;52.530;21.682;2023-09-07T12:19:59;28.80;42.90
74101;DHT22;62462;52.530;21.682;2023-09-07T12:22:26;28.70;41.70
74101;DHT22;62462;52.530;21.682;2023-09-07T12:24:52;28.70;41.00
74101;DHT22;62462;52.530;21.682;2023-09-07T12:27:18;28.60;41.90
74101;DHT22;62462;52.530;21.682;2023-09-07T12:29:45;28.50;42.50
74101;DHT22;62462;52.530;21.682;2023-09-07T12:32:10;28.70;43.80
74101;DHT22;62462;52.530;21.682;2023-09-07T12:34:37;29.00;44.30
74101;DHT22;62462;52.530;21.682;2023-09-07T12:37:03;29.00;42.10
74101;DHT22;62462;52.530;21.682;2023-09-07T12:39:30;29.00;42.60
74101;DHT22;62462;52.530;21.682;2023-09-07T12:41:56;28.90;41.70
74101;DHT22;62462;52.530;21.682;2023-09-07T12:44:21;28.90;43.00
74101;DHT22;62462;52.530;21.682;2023-09-07T12:46:47;29.20;45.30
74101;DHT22;62462;52.530;21.682;2023-09-07T12:49:13;29.50;44.90
74101;DHT22;62462;52.530;21.682;2023-09-07T12:51:45;29.90;44.50
74101;DHT22;62462;52.530;21.682;2023-09-07T12:54:10;30.10;42.30
74101;DHT22;62462;52.530;21.682;2023-09-07T12:56:36;30.30;43.10
74101;DHT22;62462;52.530;21.682;2023-09-07T12:59:02;30.50;43.10
74101;DHT22;62462;52.530;21.682;2023-09-07T13:01:29;30.60;42.70
74101;DHT22;62462;52.530;21.682;2023-09-07T13:03:55;30.80;43.20
74101;DHT22;62462;52.530;21.682;2023-09-07T13:06:20;30.90;39.80
74101;DHT22;62462;52.530;21.682;2023-09-07T13:08:46;30.90;39.30
74101;DHT22;62462;52.530;21.682;2023-09-07T13:11:12;30.90;39.90
74101;DHT22;62462;52.530;21.682;2023-09-07T13:13:38;30.90;39.10
74101;DHT22;62462;52.530;21.682;2023-09-07T13:16:04;31.00;40.90
74101;DHT22;62462;52.530;21.682;2023-09-07T13:18:30;31.10;41.00
74101;DHT22;62462;52.530;21.682;2023-09-07T13:20:57;31.20;40.70
74101;DHT22;62462;52.530;21.682;2023-09-07T13:23:28;31.20;39.40
74101;DHT22;62462;52.530;21.682;2023-09-07T13:25:57;31.10;40.00
74101;DHT22;62462;52.530;21.682;2023-09-07T13:28:23;31.10;40.10
74101;DHT22;62462;52.530;21.682;2023-09-07T13:30:50;31.10;40.50
74101;DHT22;62462;52.530;21.682;2023-09-07T13:33:16;31.10;40.40
74101;DHT22;62462;52.530;21.682;2023-09-07T13:35:42;31.20;40.50
74101;DHT22;62462;52.530;21.682;2023-09-07T13:38:07;31.30;40.50
74101;DHT22;62462;52.530;21.682;2023-09-07T13:40:33;31.50;39.70
74101;DHT22;62462;52.530;21.682;2023-09-07T13:42:59;31.50;40.20
74101;DHT22;62462;52.530;21.682;2023-09-07T13:45:24;31.50;38.70
74101;DHT22;62462;52.530;21.682;2023-09-07T13:47:50;31.50;38.20
74101;DHT22;62462;52.530;21.682;2023-09-07T13:50:16;31.50;38.10
74101;DHT22;62462;52.530;21.682;2023-09-07T13:52:42;31.50;38.20
74101;DHT22;62462;52.530;21.682;2023-09-07T13:55:08;31.60;38.20
74101;DHT22;62462;52.530;21.682;2023-09-07T13:57:34;31.50;36.90
74101;DHT22;62462;52.530;21.682;2023-09-07T13:59:59;31.30;36.20
74101;DHT22;62462;52.530;21.682;2023-09-07T14:02:26;31.10;38.20
74101;DHT22;62462;52.530;21.682;2023-09-07T14:04:51;31.20;38.60
74101;DHT22;62462;52.530;21.682;2023-09-07T14:07:17;31.30;38.70
74101;DHT22;62462;52.530;21.682;2023-09-07T14:09:43;31.40;38.90
74101;DHT22;62462;52.530;21.682;2023-09-07T14:12:09;31.50;38.50
74101;DHT22;62462;52.530;21.682;2023-09-07T14:14:35;31.50;37.50
74101;DHT22;62462;52.530;21.682;2023-09-07T14:17:01;31.60;37.80
74101;DHT22;62462;52.530;21.682;2023-09-07T14:19:27;31.60;38.00
74101;DHT22;62462;52.530;21.682;2023-09-07T14:21:56;31.60;38.10
74101;DHT22;62462;52.530;21.682;2023-09-07T14:24:23;31.60;38.60
74101;DHT22;62462;52.530;21.682;2023-09-07T14:26:48;31.60;38.70
74101;DHT22;62462;52.530;21.682;2023-09-07T14:29:14;31.70;37.80
74101;DHT22;62462;52.530;21.682;2023-09-07T14:31:40;31.70;36.70
74101;DHT22;62462;52.530;21.682;2023-09-07T14:34:08;31.70;37.40
74101;DHT22;62462;52.530;21.682;2023-09-07T14:36:33;31.60;36.70
74101;DHT22;62462;52.530;21.682;2023-09-07T14:38:59;31.60;37.30
74101;DHT22;62462;52.530;21.682;2023-09-07T14:41:25;31.50;37.40
74101;DHT22;62462;52.530;21.682;2023-09-07T14:43:50;31.50;37.50
74101;DHT22;62462;52.530;21.682;2023-09-07T14:46:17;31.40;36.80
74101;DHT22;62462;52.530;21.682;2023-09-07T14:48:43;31.30;37.00
74101;DHT22;62462;52.530;21.682;2023-09-07T14:51:09;31.30;37.70
74101;DHT22;62462;52.530;21.682;2023-09-07T14:53:35;31.30;37.50
74101;DHT22;62462;52.530;21.682;2023-09-07T14:56:01;31.30;37.40
74101;DHT22;62462;52.530;21.682;2023-09-07T14:58:27;31.30;37.70
74101;DHT22;62462;52.530;21.682;2023-09-07T15:00:52;31.40;38.20
74101;DHT22;62462;52.530;21.682;2023-09-07T15:03:18;31.50;37.80
74101;DHT22;62462;52.530;21.682;2023-09-07T15:05:44;31.50;37.40
74101;DHT22;62462;52.530;21.682;2023-09-07T15:08:09;31.40;36.80
74101;DHT22;62462;52.530;21.682;2023-09-07T15:10:35;31.40;36.80
74101;DHT22;62462;52.530;21.682;2023-09-07T15:13:01;31.40;37.60